sensor_id;sensor_type;location;lat;lon;timestamp;temperature;humidity
9116;DHT22;4593;53.652;10.168;2023-02-28T00:01:23;3.10;77.90
9116;DHT22;4593;53.652;10.168;2023-02-28T00:03:49;3.00;77.80
9116;DHT22;4593;53.652;10.168;2023-02-28T00:06:14;3.00;77.70
9116;DHT22;4593;53.652;10.168;2023-02-28T00:08:40;2.90;77.60
9116;DHT22;4593;53.652;10.168;2023-02-28T00:11:12;2.80;77.70
9116;DHT22;4593;53.652;10.168;2023-02-28T00:13:44;2.70;77.90
9116;DHT22;4593;53.652;10.168;2023-02-28T00:16:16;2.70;78.30
9116;DHT22;4593;53.652;10.168;2023-02-28T00:18:43;2.70;78.50
9116;DHT22;4593;53.652;10.168;2023-02-28T00:21:09;2.60;78.80
9116;DHT22;4593;53.652;10.168;2023-02-28T00:23:35;2.60;79.30
9116;DHT22;4593;53.652;10.168;2023-02-28T00:26:01;2.60;79.60
9116;DHT22;4593;53.652;10.168;2023-02-28T00:28:27;2.60;79.70
9116;DHT22;4593;53.652;10.168;2023-02-28T00:30:52;2.70;79.80
9116;DHT22;4593;53.652;10.168;2023-02-28T00:33:18;2.70;80.00
9116;DHT22;4593;53.652;10.168;2023-02-28T00:35:44;2.70;80.00
9116;DHT22;4593;53.652;10.168;2023-02-28T00:38:12;2.80;79.80
9116;DHT22;4593;53.652;10.168;2023-02-28T00:40:38;2.80;79.60
9116;DHT22;4593;53.652;10.168;2023-02-28T00:43:04;2.80;79.70
9116;DHT22;4593;53.652;10.168;2023-02-28T00:45:30;2.80;79.40
9116;DHT22;4593;53.652;10.168;2023-02-28T00:47:55;2.80;78.90
9116;DHT22;4593;53.652;10.168;2023-02-28T00:50:21;2.80;79.10
9116;DHT22;4593;53.652;10.168;2023-02-28T00:52:47;2.80;78.90
9116;DHT22;4593;53.652;10.168;2023-02-28T00:55:13;2.80;78.80
9116;DHT22;4593;53.652;10.168;2023-02-28T00:57:39;2.80;78.20
9116;DHT22;4593;53.652;10.168;2023-02-28T01:00:06;2.80;77.90
9116;DHT22;4593;53.652;10.168;2023-02-28T01:02:32;2.80;77.70
9116;DHT22;4593;53.652;10.168;2023-02-28T01:04:58;2.80;78.00
9116;DHT22;4593;53.652;10.168;2023-02-28T01:09:51;2.90;78.70
9116;DHT22;4593;53.652;10.168;2023-02-28T01:12:16;2.90;78.90
9116;DHT22;4593;53.652;10.168;2023-02-28T01:14:42;2.90;78.90
9116;DHT22;4593;53.652;10.168;2023-02-28T01:17:09;2.80;78.90
9116;DHT22;4593;53.652;10.168;2023-02-28T01:19:35;2.80;78.90
9116;DHT22;4593;53.652;10.168;2023-02-28T01:22:04;2.70;79.10
9116;DHT22;4593;53.652;10.168;2023-02-28T01:24:30;2.60;79.30
9116;DHT22;4593;53.652;10.168;2023-02-28T01:26:56;2.50;79.90
9116;DHT22;4593;53.652;10.168;2023-02-28T01:29:22;2.40;80.40
9116;DHT22;4593;53.652;10.168;2023-02-28T01:31:48;2.40;80.90
9116;DHT22;4593;53.652;10.168;2023-02-28T01:34:13;2.30;81.30
9116;DHT22;4593;53.652;10.168;2023-02-28T01:36:39;2.30;81.50
9116;DHT22;4593;53.652;10.168;2023-02-28T01:39:05;2.30;81.50
9116;DHT22;4593;53.652;10.168;2023-02-28T01:41:33;2.40;81.30
9116;DHT22;4593;53.652;10.168;2023-02-28T01:44:54;2.30;81.10
9116;DHT22;4593;53.652;10.168;2023-02-28T01:46:53;2.30;81.40
9116;DHT22;4593;53.652;10.168;2023-02-28T01:49:18;2.30;81.60
9116;DHT22;4593;53.652;10.168;2023-02-28T01:51:55;2.20;81.60
9116;DHT22;4593;53.652;10.168;2023-02-28T01:54:28;2.20;81.50
9116;DHT22;4593;53.652;10.168;2023-02-28T01:57:13;2.20;81.90
9116;DHT22;4593;53.652;10.168;2023-02-28T01:59:57;2.30;82.00
9116;DHT22;4593;53.652;10.168;2023-02-28T02:02:25;2.40;81.70
9116;DHT22;4593;53.652;10.168;2023-02-28T02:04:58;2.40;81.20
9116;DHT22;4593;53.652;10.168;2023-02-28T02:07:27;2.50;80.90
9116;DHT22;4593;53.652;10.168;2023-02-28T02:10:13;2.50;81.10
9116;DHT22;4593;53.652;10.168;2023-02-28T02:12:46;2.50;81.10
9116;DHT22;4593;53.652;10.168;2023-02-28T02:15:26;2.50;81.30
9116;DHT22;4593;53.652;10.168;2023-02-28T02:17:58;2.50;81.20
9116;DHT22;4593;53.652;10.168;2023-02-28T02:34:26;2.50;81.30
9116;DHT22;4593;53.652;10.168;2023-02-28T02:40:14;2.40;81.50
9116;DHT22;4593;53.652;10.168;2023-02-28T02:48:11;2.20;82.30
9116;DHT22;4593;53.652;10.168;2023-02-28T02:50:44;2.10;82.30
9116;DHT22;4593;53.652;10.168;2023-02-28T02:53:12;1.90;82.40
9116;DHT22;4593;53.652;10.168;2023-02-28T02:55:43;1.70;82.50
9116;DHT22;4593;53.652;10.168;2023-02-28T02:58:14;1.50;83.00
9116;DHT22;4593;53.652;10.168;2023-02-28T03:00:54;1.30;83.50
9116;DHT22;4593;53.652;10.168;2023-02-28T03:03:22;1.20;83.60
9116;DHT22;4593;53.652;10.168;2023-02-28T03:06:01;1.00;84.10
9116;DHT22;4593;53.652;10.168;2023-02-28T03:08:28;0.80;84.40
9116;DHT22;4593;53.652;10.168;2023-02-28T03:11:00;0.70;84.90
9116;DHT22;4593;53.652;10.168;2023-02-28T03:30:03;0.10;87.20
9116;DHT22;4593;53.652;10.168;2023-02-28T03:32:35;0.10;87.10
9116;DHT22;4593;53.652;10.168;2023-02-28T03:35:16;0.00;87.20
9116;DHT22;4593;53.652;10.168;2023-02-28T03:38:10;0.00;87.50
9116;DHT22;4593;53.652;10.168;2023-02-28T03:40:35;0.00;87.90
9116;DHT22;4593;53.652;10.168;2023-02-28T03:43:07;-0.10;88.20
9116;DHT22;4593;53.652;10.168;2023-02-28T03:45:37;-0.20;88.30
9116;DHT22;4593;53.652;10.168;2023-02-28T03:48:13;-0.20;88.90
9116;DHT22;4593;53.652;10.168;2023-02-28T03:50:46;-0.20;89.80
9116;DHT22;4593;53.652;10.168;2023-02-28T03:53:29;-0.10;90.00
9116;DHT22;4593;53.652;10.168;2023-02-28T03:56:06;-0.10;89.30
9116;DHT22;4593;53.652;10.168;2023-02-28T03:58:44;-0.20;89.40
9116;DHT22;4593;53.652;10.168;2023-02-28T04:01:20;-0.30;89.90
9116;DHT22;4593;53.652;10.168;2023-02-28T04:03:49;-0.30;89.80
9116;DHT22;4593;53.652;10.168;2023-02-28T04:06:18;-0.30;90.20
9116;DHT22;4593;53.652;10.168;2023-02-28T04:08:44;-0.30;90.40
9116;DHT22;4593;53.652;10.168;2023-02-28T04:11:18;-0.40;89.80
9116;DHT22;4593;53.652;10.168;2023-02-28T04:13:45;-0.40;90.40
9116;DHT22;4593;53.652;10.168;2023-02-28T04:16:10;-0.40;90.60
9116;DHT22;4593;53.652;10.168;2023-02-28T04:18:41;-0.50;90.80
9116;DHT22;4593;53.652;10.168;2023-02-28T04:21:09;-0.50;90.80
9116;DHT22;4593;53.652;10.168;2023-02-28T04:23:35;-0.60;91.00
9116;DHT22;4593;53.652;10.168;2023-02-28T04:26:01;-0.60;91.50
9116;DHT22;4593;53.652;10.168;2023-02-28T04:28:26;-0.60;91.90
9116;DHT22;4593;53.652;10.168;2023-02-28T04:30:57;-0.60;91.70
9116;DHT22;4593;53.652;10.168;2023-02-28T04:33:22;-0.50;91.40
9116;DHT22;4593;53.652;10.168;2023-02-28T04:35:48;-0.60;91.70
9116;DHT22;4593;53.652;10.168;2023-02-28T04:38:13;-0.60;91.40
9116;DHT22;4593;53.652;10.168;2023-02-28T04:40:39;-0.60;91.80
9116;DHT22;4593;53.652;10.168;2023-02-28T04:43:05;-0.70;91.90
9116;DHT22;4593;53.652;10.168;2023-02-28T04:45:31;-0.70;92.10
9116;DHT22;4593;53.652;10.168;2023-02-28T04:47:59;-0.60;92.20
9116;DHT22;4593;53.652;10.168;2023-02-28T04:50:24;-0.60;91.70
9116;DHT22;4593;53.652;10.168;2023-02-28T04:52:50;-0.60;91.70
9116;DHT22;4593;53.652;10.168;2023-02-28T04:55:16;-0.70;91.60
9116;DHT22;4593;53.652;10.168;2023-02-28T04:57:41;-0.80;91.90
9116;DHT22;4593;53.652;10.168;2023-02-28T05:00:09;-0.80;92.10
9116;DHT22;4593;53.652;10.168;2023-02-28T05:02:37;-0.90;92.00
9116;DHT22;4593;53.652;10.168;2023-02-28T05:05:04;-1.00;92.30
9116;DHT22;4593;53.652;10.168;2023-02-28T05:07:30;-1.00;92.30
9116;DHT22;4593;53.652;10.168;2023-02-28T05:09:55;-1.00;93.40
9116;DHT22;4593;53.652;10.168;2023-02-28T05:12:21;-0.90;93.30
9116;DHT22;4593;53.652;10.168;2023-02-28T05:14:47;-0.90;93.00
9116;DHT22;4593;53.652;10.168;2023-02-28T05:17:12;-1.00;93.00
9116;DHT22;4593;53.652;10.168;2023-02-28T05:19:38;-1.00;92.70
9116;DHT22;4593;53.652;10.168;2023-02-28T05:22:03;-1.00;92.40
9116;DHT22;4593;53.652;10.168;2023-02-28T05:24:29;-1.10;92.50
9116;DHT22;4593;53.652;10.168;2023-02-28T05:26:55;-1.20;93.00
9116;DHT22;4593;53.652;10.168;2023-02-28T05:29:21;-1.20;93.40
9116;DHT22;4593;53.652;10.168;2023-02-28T05:31:47;-1.20;93.20
9116;DHT22;4593;53.652;10.168;2023-02-28T05:34:13;-1.20;93.40
9116;DHT22;4593;53.652;10.168;2023-02-28T05:36:41;-1.30;93.60
9116;DHT22;4593;53.652;10.168;2023-02-28T05:39:07;-1.30;93.80
9116;DHT22;4593;53.652;10.168;2023-02-28T05:41:41;-1.30;94.40
9116;DHT22;4593;53.652;10.168;2023-02-28T05:44:06;-1.30;94.10
9116;DHT22;4593;53.652;10.168;2023-02-28T05:46:32;-1.30;94.20
9116;DHT22;4593;53.652;10.168;2023-02-28T05:48:58;-1.30;94.40
9116;DHT22;4593;53.652;10.168;2023-02-28T05:51:25;-1.40;94.50
9116;DHT22;4593;53.652;10.168;2023-02-28T05:53:51;-1.40;94.60
9116;DHT22;4593;53.652;10.168;2023-02-28T05:56:16;-1.30;94.80
9116;DHT22;4593;53.652;10.168;2023-02-28T05:58:42;-1.30;94.40
9116;DHT22;4593;53.652;10.168;2023-02-28T06:01:22;-1.30;94.50
9116;DHT22;4593;53.652;10.168;2023-02-28T06:03:48;-1.30;94.90
9116;DHT22;4593;53.652;10.168;2023-02-28T06:06:13;-1.30;94.70
9116;DHT22;4593;53.652;10.168;2023-02-28T06:08:39;-1.30;94.20
9116;DHT22;4593;53.652;10.168;2023-02-28T06:11:05;-1.30;94.20
9116;DHT22;4593;53.652;10.168;2023-02-28T06:13:32;-1.30;94.10
9116;DHT22;4593;53.652;10.168;2023-02-28T06:16:00;-1.40;94.90
9116;DHT22;4593;53.652;10.168;2023-02-28T06:18:26;-1.30;94.60
9116;DHT22;4593;53.652;10.168;2023-02-28T06:20:53;-1.30;94.30
9116;DHT22;4593;53.652;10.168;2023-02-28T06:23:20;-1.30;94.20
9116;DHT22;4593;53.652;10.168;2023-02-28T06:25:46;-1.40;94.10
9116;DHT22;4593;53.652;10.168;2023-02-28T06:28:12;-1.40;94.00
9116;DHT22;4593;53.652;10.168;2023-02-28T06:30:38;-1.40;94.20
9116;DHT22;4593;53.652;10.168;2023-02-28T06:33:04;-1.40;94.10
9116;DHT22;4593;53.652;10.168;2023-02-28T06:35:31;-1.50;94.30
9116;DHT22;4593;53.652;10.168;2023-02-28T06:37:56;-1.40;94.80
9116;DHT22;4593;53.652;10.168;2023-02-28T06:40:22;-1.40;95.10
9116;DHT22;4593;53.652;10.168;2023-02-28T06:42:48;-1.30;95.70
9116;DHT22;4593;53.652;10.168;2023-02-28T06:45:13;-1.20;95.80
9116;DHT22;4593;53.652;10.168;2023-02-28T06:47:40;-1.20;95.20
9116;DHT22;4593;53.652;10.168;2023-02-28T06:50:08;-1.10;94.50
9116;DHT22;4593;53.652;10.168;2023-02-28T06:52:34;-1.20;94.50
9116;DHT22;4593;53.652;10.168;2023-02-28T06:55:06;-1.10;94.50
9116;DHT22;4593;53.652;10.168;2023-02-28T06:57:33;-1.10;94.30
9116;DHT22;4593;53.652;10.168;2023-02-28T07:00:00;-1.00;94.50
9116;DHT22;4593;53.652;10.168;2023-02-28T07:02:27;-1.00;94.60
9116;DHT22;4593;53.652;10.168;2023-02-28T07:04:53;-1.00;94.80
9116;DHT22;4593;53.652;10.168;2023-02-28T07:09:47;-0.90;94.00
9116;DHT22;4593;53.652;10.168;2023-02-28T07:12:13;-0.90;93.80
9116;DHT22;4593;53.652;10.168;2023-02-28T07:14:38;-0.90;93.90
9116;DHT22;4593;53.652;10.168;2023-02-28T07:17:07;-0.90;94.00
9116;DHT22;4593;53.652;10.168;2023-02-28T07:19:33;-0.90;94.00
9116;DHT22;4593;53.652;10.168;2023-02-28T07:21:58;-0.90;94.00
9116;DHT22;4593;53.652;10.168;2023-02-28T07:24:24;-0.80;94.10
9116;DHT22;4593;53.652;10.168;2023-02-28T07:26:53;-0.70;93.90
9116;DHT22;4593;53.652;10.168;2023-02-28T07:29:19;-0.70;93.90
9116;DHT22;4593;53.652;10.168;2023-02-28T07:31:44;-0.70;94.10
9116;DHT22;4593;53.652;10.168;2023-02-28T07:34:12;-0.60;93.90
9116;DHT22;4593;53.652;10.168;2023-02-28T07:36:38;-0.50;93.90
9116;DHT22;4593;53.652;10.168;2023-02-28T07:39:03;-0.50;94.00
9116;DHT22;4593;53.652;10.168;2023-02-28T07:41:30;-0.40;93.80
9116;DHT22;4593;53.652;10.168;2023-02-28T07:43:59;-0.40;93.70
9116;DHT22;4593;53.652;10.168;2023-02-28T07:46:26;-0.40;93.50
9116;DHT22;4593;53.652;10.168;2023-02-28T07:48:51;-0.30;93.70
9116;DHT22;4593;53.652;10.168;2023-02-28T07:51:18;-0.30;93.60
9116;DHT22;4593;53.652;10.168;2023-02-28T07:53:44;-0.20;93.50
9116;DHT22;4593;53.652;10.168;2023-02-28T07:56:10;-0.10;93.40
9116;DHT22;4593;53.652;10.168;2023-02-28T07:58:36;0.00;93.30
9116;DHT22;4593;53.652;10.168;2023-02-28T08:01:06;0.00;93.10
9116;DHT22;4593;53.652;10.168;2023-02-28T08:03:33;0.10;92.80
9116;DHT22;4593;53.652;10.168;2023-02-28T08:05:58;0.10;92.50
9116;DHT22;4593;53.652;10.168;2023-02-28T08:08:24;0.20;92.20
9116;DHT22;4593;53.652;10.168;2023-02-28T08:11:01;0.20;92.20
9116;DHT22;4593;53.652;10.168;2023-02-28T08:13:28;0.30;91.90
9116;DHT22;4593;53.652;10.168;2023-02-28T08:15:55;0.40;91.80
9116;DHT22;4593;53.652;10.168;2023-02-28T08:18:22;0.40;91.50
9116;DHT22;4593;53.652;10.168;2023-02-28T08:20:48;0.50;91.40
9116;DHT22;4593;53.652;10.168;2023-02-28T08:23:13;0.60;91.20
9116;DHT22;4593;53.652;10.168;2023-02-28T08:25:39;0.60;90.80
9116;DHT22;4593;53.652;10.168;2023-02-28T08:28:05;0.70;90.90
9116;DHT22;4593;53.652;10.168;2023-02-28T08:30:30;0.80;90.50
9116;DHT22;4593;53.652;10.168;2023-02-28T08:32:56;0.90;90.00
9116;DHT22;4593;53.652;10.168;2023-02-28T08:35:22;1.00;89.60
9116;DHT22;4593;53.652;10.168;2023-02-28T08:37:49;1.20;89.30
9116;DHT22;4593;53.652;10.168;2023-02-28T08:40:15;1.20;88.70
9116;DHT22;4593;53.652;10.168;2023-02-28T08:42:44;1.30;88.20
9116;DHT22;4593;53.652;10.168;2023-02-28T08:45:11;1.50;87.70
9116;DHT22;4593;53.652;10.168;2023-02-28T08:47:37;1.60;86.40
9116;DHT22;4593;53.652;10.168;2023-02-28T08:50:03;1.80;84.80
9116;DHT22;4593;53.652;10.168;2023-02-28T08:52:29;2.00;82.10
9116;DHT22;4593;53.652;10.168;2023-02-28T08:54:54;2.10;80.20
9116;DHT22;4593;53.652;10.168;2023-02-28T08:57:20;2.30;79.70
9116;DHT22;4593;53.652;10.168;2023-02-28T08:59:46;2.50;78.00
9116;DHT22;4593;53.652;10.168;2023-02-28T09:02:14;2.60;76.10
9116;DHT22;4593;53.652;10.168;2023-02-28T09:04:40;2.90;75.50
9116;DHT22;4593;53.652;10.168;2023-02-28T09:07:07;3.10;75.20
9116;DHT22;4593;53.652;10.168;2023-02-28T09:09:33;3.30;74.50
9116;DHT22;4593;53.652;10.168;2023-02-28T09:11:58;3.50;73.50
9116;DHT22;4593;53.652;10.168;2023-02-28T09:14:24;3.80;72.90
9116;DHT22;4593;53.652;10.168;2023-02-28T09:16:50;3.90;72.50
9116;DHT22;4593;53.652;10.168;2023-02-28T09:19:16;4.10;71.90
9116;DHT22;4593;53.652;10.168;2023-02-28T09:21:41;4.20;71.20
9116;DHT22;4593;53.652;10.168;2023-02-28T09:24:07;4.30;68.20
9116;DHT22;4593;53.652;10.168;2023-02-28T09:26:33;4.40;67.00
9116;DHT22;4593;53.652;10.168;2023-02-28T09:28:59;4.50;66.10
9116;DHT22;4593;53.652;10.168;2023-02-28T09:31:26;4.40;64.50
9116;DHT22;4593;53.652;10.168;2023-02-28T09:33:54;4.50;64.50
9116;DHT22;4593;53.652;10.168;2023-02-28T09:36:22;4.60;64.70
9116;DHT22;4593;53.652;10.168;2023-02-28T09:38:48;4.70;64.50
9116;DHT22;4593;53.652;10.168;2023-02-28T09:41:20;4.80;64.00
9116;DHT22;4593;53.652;10.168;2023-02-28T09:43:50;4.90;62.60
9116;DHT22;4593;53.652;10.168;2023-02-28T09:46:40;4.90;61.80
9116;DHT22;4593;53.652;10.168;2023-02-28T09:49:14;5.00;62.30
9116;DHT22;4593;53.652;10.168;2023-02-28T09:54:24;4.90;61.10
9116;DHT22;4593;53.652;10.168;2023-02-28T09:57:10;4.90;61.50
9116;DHT22;4593;53.652;10.168;2023-02-28T10:05:00;4.90;61.60
9116;DHT22;4593;53.652;10.168;2023-02-28T10:15:52;4.80;62.40
9116;DHT22;4593;53.652;10.168;2023-02-28T10:18:26;4.90;62.40
9116;DHT22;4593;53.652;10.168;2023-02-28T10:20:53;4.90;62.30
9116;DHT22;4593;53.652;10.168;2023-02-28T10:23:39;5.00;62.60
9116;DHT22;4593;53.652;10.168;2023-02-28T10:26:16;5.10;63.10
9116;DHT22;4593;53.652;10.168;2023-02-28T10:28:43;5.20;61.80
9116;DHT22;4593;53.652;10.168;2023-02-28T10:31:15;5.20;60.40
9116;DHT22;4593;53.652;10.168;2023-02-28T10:33:44;5.30;60.60
9116;DHT22;4593;53.652;10.168;2023-02-28T10:36:15;5.40;60.50
9116;DHT22;4593;53.652;10.168;2023-02-28T10:38:43;5.50;60.20
9116;DHT22;4593;53.652;10.168;2023-02-28T10:41:26;5.40;59.10
9116;DHT22;4593;53.652;10.168;2023-02-28T10:43:53;5.40;60.50
9116;DHT22;4593;53.652;10.168;2023-02-28T10:46:39;5.30;57.90
9116;DHT22;4593;53.652;10.168;2023-02-28T10:49:12;5.20;57.10
9116;DHT22;4593;53.652;10.168;2023-02-28T10:51:40;5.30;56.50
9116;DHT22;4593;53.652;10.168;2023-02-28T10:54:22;5.30;56.80
9116;DHT22;4593;53.652;10.168;2023-02-28T10:57:17;5.40;58.30
9116;DHT22;4593;53.652;10.168;2023-02-28T10:59:43;5.40;59.20
9116;DHT22;4593;53.652;10.168;2023-02-28T11:02:30;5.40;57.60
9116;DHT22;4593;53.652;10.168;2023-02-28T11:04:56;5.40;57.70
9116;DHT22;4593;53.652;10.168;2023-02-28T11:07:23;5.50;56.70
9116;DHT22;4593;53.652;10.168;2023-02-28T11:09:59;5.50;56.90
9116;DHT22;4593;53.652;10.168;2023-02-28T11:12:38;5.60;57.00
9116;DHT22;4593;53.652;10.168;2023-02-28T11:15:18;5.50;56.40
9116;DHT22;4593;53.652;10.168;2023-02-28T11:17:57;5.50;56.60
9116;DHT22;4593;53.652;10.168;2023-02-28T11:20:26;5.50;56.90
9116;DHT22;4593;53.652;10.168;2023-02-28T11:22:54;5.50;57.20
9116;DHT22;4593;53.652;10.168;2023-02-28T11:25:29;5.60;57.50
9116;DHT22;4593;53.652;10.168;2023-02-28T11:28:01;5.60;56.90
9116;DHT22;4593;53.652;10.168;2023-02-28T11:30:37;5.80;56.00
9116;DHT22;4593;53.652;10.168;2023-02-28T11:35:53;5.90;55.00
9116;DHT22;4593;53.652;10.168;2023-02-28T11:38:19;5.90;54.70
9116;DHT22;4593;53.652;10.168;2023-02-28T11:46:53;6.00;54.30
9116;DHT22;4593;53.652;10.168;2023-02-28T11:49:47;6.00;53.00
9116;DHT22;4593;53.652;10.168;2023-02-28T11:58:52;6.20;54.60
9116;DHT22;4593;53.652;10.168;2023-02-28T12:06:33;6.20;53.50
9116;DHT22;4593;53.652;10.168;2023-02-28T12:09:04;6.30;54.40
9116;DHT22;4593;53.652;10.168;2023-02-28T12:17:27;6.20;53.90
9116;DHT22;4593;53.652;10.168;2023-02-28T12:25:38;6.10;51.90
9116;DHT22;4593;53.652;10.168;2023-02-28T12:28:12;6.10;51.80
9116;DHT22;4593;53.652;10.168;2023-02-28T12:30:51;6.10;51.90
9116;DHT22;4593;53.652;10.168;2023-02-28T12:33:21;6.10;51.90
9116;DHT22;4593;53.652;10.168;2023-02-28T12:35:54;6.10;51.80
9116;DHT22;4593;53.652;10.168;2023-02-28T12:38:44;6.10;52.20
9116;DHT22;4593;53.652;10.168;2023-02-28T12:41:26;6.10;50.20
9116;DHT22;4593;53.652;10.168;2023-02-28T12:44:09;6.20;49.90
9116;DHT22;4593;53.652;10.168;2023-02-28T12:46:47;6.20;49.60
9116;DHT22;4593;53.652;10.168;2023-02-28T12:49:33;6.30;51.70
9116;DHT22;4593;53.652;10.168;2023-02-28T12:52:01;6.20;50.00
9116;DHT22;4593;53.652;10.168;2023-02-28T12:56:56;6.20;51.50
9116;DHT22;4593;53.652;10.168;2023-02-28T12:59:27;6.20;50.70
9116;DHT22;4593;53.652;10.168;2023-02-28T13:07:56;6.30;49.90
9116;DHT22;4593;53.652;10.168;2023-02-28T13:10:24;6.30;50.30
9116;DHT22;4593;53.652;10.168;2023-02-28T13:12:52;6.40;49.90
9116;DHT22;4593;53.652;10.168;2023-02-28T13:15:26;6.40;50.50
9116;DHT22;4593;53.652;10.168;2023-02-28T13:17:56;6.30;50.50
9116;DHT22;4593;53.652;10.168;2023-02-28T13:20:29;6.40;50.00
9116;DHT22;4593;53.652;10.168;2023-02-28T13:22:58;6.40;50.10
9116;DHT22;4593;53.652;10.168;2023-02-28T13:25:59;6.40;50.70
9116;DHT22;4593;53.652;10.168;2023-02-28T13:31:14;6.40;50.20
9116;DHT22;4593;53.652;10.168;2023-02-28T13:38:51;6.30;48.70
9116;DHT22;4593;53.652;10.168;2023-02-28T13:46:32;6.50;48.10
9116;DHT22;4593;53.652;10.168;2023-02-28T13:52:20;6.50;47.80
9116;DHT22;4593;53.652;10.168;2023-02-28T14:02:37;6.30;47.20
9116;DHT22;4593;53.652;10.168;2023-02-28T14:05:19;6.20;47.60
9116;DHT22;4593;53.652;10.168;2023-02-28T14:07:56;6.30;48.00
9116;DHT22;4593;53.652;10.168;2023-02-28T14:10:29;6.30;47.60
9116;DHT22;4593;53.652;10.168;2023-02-28T14:13:13;6.30;47.60
9116;DHT22;4593;53.652;10.168;2023-02-28T14:21:36;6.40;49.10
9116;DHT22;4593;53.652;10.168;2023-02-28T14:27:03;6.40;48.80
9116;DHT22;4593;53.652;10.168;2023-02-28T14:32:50;6.50;49.30
9116;DHT22;4593;53.652;10.168;2023-02-28T14:38:33;6.40;49.30
9116;DHT22;4593;53.652;10.168;2023-02-28T14:41:04;6.40;48.30
9116;DHT22;4593;53.652;10.168;2023-02-28T14:43:32;6.40;48.80
9116;DHT22;4593;53.652;10.168;2023-02-28T14:46:02;6.40;48.50
9116;DHT22;4593;53.652;10.168;2023-02-28T14:48:30;6.50;48.10
9116;DHT22;4593;53.652;10.168;2023-02-28T14:51:00;6.50;46.60
9116;DHT22;4593;53.652;10.168;2023-02-28T14:53:29;6.50;46.30
9116;DHT22;4593;53.652;10.168;2023-02-28T14:55:55;6.50;46.50
9116;DHT22;4593;53.652;10.168;2023-02-28T14:58:31;6.40;46.10
9116;DHT22;4593;53.652;10.168;2023-02-28T15:01:00;6.40;45.70
9116;DHT22;4593;53.652;10.168;2023-02-28T15:03:34;6.30;45.40
9116;DHT22;4593;53.652;10.168;2023-02-28T15:06:14;6.40;46.00
9116;DHT22;4593;53.652;10.168;2023-02-28T15:08:40;6.30;45.70
9116;DHT22;4593;53.652;10.168;2023-02-28T15:13:47;6.40;46.20
9116;DHT22;4593;53.652;10.168;2023-02-28T15:16:31;6.30;47.40
9116;DHT22;4593;53.652;10.168;2023-02-28T15:19:04;6.20;47.50
9116;DHT22;4593;53.652;10.168;2023-02-28T15:21:34;6.10;47.20
9116;DHT22;4593;53.652;10.168;2023-02-28T15:24:17;6.10;46.40
9116;DHT22;4593;53.652;10.168;2023-02-28T15:27:03;6.10;46.10
9116;DHT22;4593;53.652;10.168;2023-02-28T15:29:30;6.20;46.50
9116;DHT22;4593;53.652;10.168;2023-02-28T15:32:03;6.10;46.10
9116;DHT22;4593;53.652;10.168;2023-02-28T15:34:39;6.20;45.40
9116;DHT22;4593;53.652;10.168;2023-02-28T15:37:46;6.10;46.50
9116;DHT22;4593;53.652;10.168;2023-02-28T15:40:22;6.00;47.00
9116;DHT22;4593;53.652;10.168;2023-02-28T15:43:18;5.90;47.30
9116;DHT22;4593;53.652;10.168;2023-02-28T15:46:01;5.80;47.30
9116;DHT22;4593;53.652;10.168;2023-02-28T15:48:30;5.80;46.90
9116;DHT22;4593;53.652;10.168;2023-02-28T15:51:08;5.70;45.70
9116;DHT22;4593;53.652;10.168;2023-02-28T15:53:48;5.70;45.60
9116;DHT22;4593;53.652;10.168;2023-02-28T15:56:26;5.60;45.50
9116;DHT22;4593;53.652;10.168;2023-02-28T15:58:56;5.60;45.70
9116;DHT22;4593;53.652;10.168;2023-02-28T16:01:28;5.50;46.30
9116;DHT22;4593;53.652;10.168;2023-02-28T16:03:59;5.40;46.40
9116;DHT22;4593;53.652;10.168;2023-02-28T16:06:33;5.40;45.40
9116;DHT22;4593;53.652;10.168;2023-02-28T16:09:00;5.30;46.10
9116;DHT22;4593;53.652;10.168;2023-02-28T16:11:25;5.20;46.50
9116;DHT22;4593;53.652;10.168;2023-02-28T16:13:52;5.20;46.10
9116;DHT22;4593;53.652;10.168;2023-02-28T16:16:23;5.10;47.30
9116;DHT22;4593;53.652;10.168;2023-02-28T16:18:50;5.00;47.90
9116;DHT22;4593;53.652;10.168;2023-02-28T16:21:16;4.90;48.10
9116;DHT22;4593;53.652;10.168;2023-02-28T16:23:41;4.70;49.20
9116;DHT22;4593;53.652;10.168;2023-02-28T16:26:08;4.60;50.20
9116;DHT22;4593;53.652;10.168;2023-02-28T16:28:37;4.50;49.90
9116;DHT22;4593;53.652;10.168;2023-02-28T16:31:05;4.40;50.10
9116;DHT22;4593;53.652;10.168;2023-02-28T16:33:32;4.30;51.20
9116;DHT22;4593;53.652;10.168;2023-02-28T16:35:58;4.40;50.10
9116;DHT22;4593;53.652;10.168;2023-02-28T16:38:24;4.30;50.30
9116;DHT22;4593;53.652;10.168;2023-02-28T16:40:51;4.20;51.20
9116;DHT22;4593;53.652;10.168;2023-02-28T16:43:23;4.10;52.80
9116;DHT22;4593;53.652;10.168;2023-02-28T16:45:57;3.90;53.60
9116;DHT22;4593;53.652;10.168;2023-02-28T16:48:26;3.70;54.50
9116;DHT22;4593;53.652;10.168;2023-02-28T16:50:52;3.50;55.20
9116;DHT22;4593;53.652;10.168;2023-02-28T16:53:19;3.40;55.60
9116;DHT22;4593;53.652;10.168;2023-02-28T16:55:44;3.30;56.50
9116;DHT22;4593;53.652;10.168;2023-02-28T16:58:15;3.10;57.80
9116;DHT22;4593;53.652;10.168;2023-02-28T17:00:41;3.00;59.40
9116;DHT22;4593;53.652;10.168;2023-02-28T17:03:33;2.90;60.20
9116;DHT22;4593;53.652;10.168;2023-02-28T17:06:00;2.70;60.50
9116;DHT22;4593;53.652;10.168;2023-02-28T17:08:25;2.70;60.40
9116;DHT22;4593;53.652;10.168;2023-02-28T17:10:54;2.70;60.40
9116;DHT22;4593;53.652;10.168;2023-02-28T17:13:19;2.60;60.80
9116;DHT22;4593;53.652;10.168;2023-02-28T17:15:46;2.60;60.70
9116;DHT22;4593;53.652;10.168;2023-02-28T17:18:17;2.60;61.10
9116;DHT22;4593;53.652;10.168;2023-02-28T17:20:45;2.50;62.30
9116;DHT22;4593;53.652;10.168;2023-02-28T17:23:11;2.30;63.70
9116;DHT22;4593;53.652;10.168;2023-02-28T17:25:37;2.20;64.80
9116;DHT22;4593;53.652;10.168;2023-02-28T17:28:03;2.00;66.10
9116;DHT22;4593;53.652;10.168;2023-02-28T17:30:34;1.90;66.70
9116;DHT22;4593;53.652;10.168;2023-02-28T17:32:59;1.80;67.20
9116;DHT22;4593;53.652;10.168;2023-02-28T17:35:25;1.70;68.20
9116;DHT22;4593;53.652;10.168;2023-02-28T17:37:52;1.60;68.80
9116;DHT22;4593;53.652;10.168;2023-02-28T17:40:20;1.50;69.10
9116;DHT22;4593;53.652;10.168;2023-02-28T17:42:46;1.50;69.60
9116;DHT22;4593;53.652;10.168;2023-02-28T17:45:13;1.30;70.10
9116;DHT22;4593;53.652;10.168;2023-02-28T17:47:39;1.30;70.60
9116;DHT22;4593;53.652;10.168;2023-02-28T17:50:06;1.20;71.00
9116;DHT22;4593;53.652;10.168;2023-02-28T17:52:31;1.20;71.60
9116;DHT22;4593;53.652;10.168;2023-02-28T17:55:02;1.10;72.20
9116;DHT22;4593;53.652;10.168;2023-02-28T17:57:28;1.10;73.00
9116;DHT22;4593;53.652;10.168;2023-02-28T17:59:54;1.00;73.20
9116;DHT22;4593;53.652;10.168;2023-02-28T18:02:19;1.00;73.50
9116;DHT22;4593;53.652;10.168;2023-02-28T18:04:45;1.00;73.30
9116;DHT22;4593;53.652;10.168;2023-02-28T18:07:11;1.10;72.80
9116;DHT22;4593;53.652;10.168;2023-02-28T18:09:37;1.00;72.60
9116;DHT22;4593;53.652;10.168;2023-02-28T18:12:03;1.00;72.90
9116;DHT22;4593;53.652;10.168;2023-02-28T18:14:29;1.00;73.50
9116;DHT22;4593;53.652;10.168;2023-02-28T18:16:54;0.90;74.00
9116;DHT22;4593;53.652;10.168;2023-02-28T18:19:20;0.80;74.20
9116;DHT22;4593;53.652;10.168;2023-02-28T18:21:48;0.80;74.40
9116;DHT22;4593;53.652;10.168;2023-02-28T18:24:16;0.80;74.70
9116;DHT22;4593;53.652;10.168;2023-02-28T18:26:42;0.70;75.10
9116;DHT22;4593;53.652;10.168;2023-02-28T18:29:09;0.70;75.40
9116;DHT22;4593;53.652;10.168;2023-02-28T18:31:39;0.70;75.40
9116;DHT22;4593;53.652;10.168;2023-02-28T18:34:04;0.60;75.60
9116;DHT22;4593;53.652;10.168;2023-02-28T18:36:31;0.60;75.60